Time;durP1;ratioP1;P1;durP2;ratioP2;P2;SDS_P1;SDS_P2;PMS_P1;PMS_P2;Temp;Humidity;BMP_temperature;BMP_pressure;BME280_temperature;BME280_humidity;BME280_pressure;Samples;Min_cycle;Max_cycle;Signal;HPM_P1;HPM_P2
2022/05/21 00:01:40;;;;;;;10.68;9.58;;;;;;;15.46;59.97;99801.05;3430553;82;21298;-75
2022/05/21 00:06:31;;;;;;;12.75;9.60;;;;;;;15.42;59.97;99793.69;3403816;82;22015;-75
2022/05/21 00:11:22;;;;;;;10.90;9.80;;;;;;;15.44;60.31;99801.07;3451075;82;21117;-75
2022/05/21 00:16:13;;;;;;;12.73;10.75;;;;;;;15.45;60.37;99794.92;3361382;82;21101;-75
2022/05/21 00:21:05;;;;;;;12.75;11.53;;;;;;;15.47;60.31;99780.48;3410512;83;21350;-75
2022/05/21 00:26:00;;;;;;;12.93;10.95;;;;;;;15.49;60.34;99786.14;3374767;81;21494;-75
2022/05/21 00:30:52;;;;;;;12.60;11.33;;;;;;;15.51;61.20;99786.97;3417852;83;20979;-75
2022/05/21 00:35:43;;;;;;;12.35;10.98;;;;;;;15.43;61.45;99778.38;3468785;80;20941;-75
2022/05/21 00:40:34;;;;;;;12.15;10.90;;;;;;;15.43;62.07;99770.52;3448027;80;21408;-75
2022/05/21 00:45:25;;;;;;;13.85;12.47;;;;;;;15.39;63.01;99760.53;3472736;80;22264;-75
2022/05/21 00:50:22;;;;;;;17.67;13.10;;;;;;;15.40;63.66;99729.99;3474442;80;21107;-75
2022/05/21 00:55:21;;;;;;;13.30;12.00;;;;;;;15.44;64.33;99765.70;3436149;81;20919;-77
2022/05/21 01:00:23;;;;;;;13.75;12.35;;;;;;;15.48;64.88;99793.56;3480406;80;20916;-79
2022/05/21 01:05:18;;;;;;;13.95;11.83;;;;;;;15.44;65.44;99824.19;3465962;81;20946;-77
2022/05/21 01:10:12;;;;;;;19.65;13.88;;;;;;;15.44;66.66;99854.77;3479164;81;21174;-77
2022/05/21 01:15:09;;;;;;;13.62;12.33;;;;;;;15.49;67.44;99835.02;3443576;81;20998;-78
2022/05/21 01:20:06;;;;;;;14.13;11.38;;;;;;;15.54;67.70;99849.80;3482946;81;20928;-78
2022/05/21 01:24:58;;;;;;;12.50;10.95;;;;;;;15.63;68.38;99807.71;3464954;81;20974;-77
2022/05/21 01:29:53;;;;;;;14.00;11.55;;;;;;;15.64;68.69;99749.61;3459201;80;20875;-77
2022/05/21 01:34:45;;;;;;;16.37;11.75;;;;;;;15.64;69.03;99713.78;3484754;81;21812;-77
2022/05/21 01:39:36;;;;;;;13.35;11.85;;;;;;;15.70;69.43;99694.45;3384043;80;20981;-77
2022/05/21 01:44:39;;;;;;;13.35;11.97;;;;;;;15.76;69.78;99662.08;3465746;81;20946;-77
2022/05/21 01:49:30;;;;;;;11.97;10.85;;;;;;;15.77;69.80;99637.15;3468953;80;21670;-76
2022/05/21 01:54:21;;;;;;;12.93;11.57;;;;;;;15.76;70.05;99638.03;3495239;81;21021;-76
2022/05/21 01:59:12;;;;;;;14.83;13.22;;;;;;;15.78;70.33;99640.16;3435773;81;21715;-76
2022/05/21 02:04:03;;;;;;;15.18;13.60;;;;;;;15.78;70.49;99638.00;3447893;80;21018;-76
2022/05/21 02:08:54;;;;;;;15.63;14.03;;;;;;;15.78;70.68;99639.31;3426982;81;21037;-76
2022/05/21 02:13:46;;;;;;;15.48;13.25;;;;;;;15.78;70.91;99602.16;3493877;80;20926;-76
2022/05/21 02:18:37;;;;;;;14.45;13.15;;;;;;;15.78;71.05;99580.34;3437256;80;20977;-77
2022/05/21 02:23:28;;;;;;;15.05;13.58;;;;;;;15.77;71.23;99559.84;3428965;80;20974;-77
2022/05/21 02:28:19;;;;;;;14.60;13.13;;;;;;;15.74;71.40;99543.26;3474409;80;21010;-77
2022/05/21 02:33:11;;;;;;;16.45;14.80;;;;;;;15.74;71.50;99552.04;3460288;80;20931;-77
2022/05/21 02:43:11;;;;;;;14.73;13.20;;;;;;;15.68;71.63;99518.06;3469259;80;20944;-76
2022/05/21 02:48:03;;;;;;;20.95;13.70;;;;;;;15.63;71.86;99525.16;3419123;80;21496;-76
2022/05/21 02:52:54;;;;;;;16.00;14.47;;;;;;;15.61;72.09;99541.38;3462457;80;20992;-76
2022/05/21 02:57:47;;;;;;;16.55;14.93;;;;;;;15.63;72.39;99573.21;3451421;80;21500;-76
2022/05/21 03:02:39;;;;;;;16.55;14.33;;;;;;;15.70;72.60;99580.92;3459570;80;21539;-76
2022/05/21 03:07:31;;;;;;;17.35;15.65;;;;;;;15.63;72.42;99565.34;3441618;81;21789;-76
2022/05/21 03:12:22;;;;;;;16.07;14.68;;;;;;;15.63;72.60;99552.25;3454832;81;21405;-76
2022/05/21 03:17:13;;;;;;;16.02;14.68;;;;;;;15.62;72.79;99565.38;3442752;81;21248;-77
2022/05/21 03:22:05;;;;;;;16.10;14.78;;;;;;;15.68;72.99;99569.61;3447450;80;20985;-77
2022/05/21 03:26:57;;;;;;;16.65;14.90;;;;;;;15.64;72.96;99557.88;3442462;81;20915;-77
2022/05/21 03:31:48;;;;;;;16.75;15.03;;;;;;;15.63;73.45;99571.02;3425234;80;21033;-78
2022/05/21 03:36:40;;;;;;;16.93;15.10;;;;;;;15.67;73.72;99586.22;3470887;80;21417;-78
2022/05/21 03:41:31;;;;;;;17.82;16.02;;;;;;;15.61;73.64;99552.73;3447045;80;21065;-78
2022/05/21 03:46:23;;;;;;;18.45;16.55;;;;;;;15.59;73.90;99542.71;3488047;80;20927;-79
2022/05/21 03:51:15;;;;;;;17.30;15.53;;;;;;;15.62;74.18;99537.41;3463988;81;20971;-78
2022/05/21 03:56:08;;;;;;;20.25;17.02;;;;;;;15.64;74.18;99526.45;3450180;81;21045;-78
2022/05/21 04:01:00;;;;;;;17.70;16.17;;;;;;;15.70;74.34;99518.03;3463728;80;22042;-77
2022/05/21 04:05:57;;;;;;;18.45;16.77;;;;;;;15.73;74.29;99517.97;3402456;81;20969;-77
2022/05/21 04:10:48;;;;;;;;;;;;;;;15.76;74.45;99508.77;3475941;80;21464;-77
2022/05/21 04:15:39;;;;;;;19.62;17.90;;;;;;;15.82;74.73;99526.95;3529361;80;20137;-77
2022/05/21 04:20:30;;;;;;;18.77;17.07;;;;;;;15.90;74.55;99513.23;3518939;80;20935;-76
2022/05/21 04:25:21;;;;;;;19.65;17.92;;;;;;;16.02;74.53;99496.33;3473466;80;21013;-76
2022/05/21 04:30:21;;;;;;;21.10;19.12;;;;;;;16.13;74.46;99477.70;3505064;80;21500;-76
2022/05/21 04:35:14;;;;;;;23.20;21.10;;;;;;;16.18;74.73;99495.49;3483025;80;21045;-76
2022/05/21 04:40:10;;;;;;;21.70;19.62;;;;;;;16.20;74.47;99493.69;3446047;80;20966;-76
2022/05/21 04:45:04;;;;;;;19.33;17.63;;;;;;;16.30;74.82;99515.31;3402993;80;20899;-76
2022/05/21 04:49:55;;;;;;;19.80;17.73;;;;;;;16.29;75.10;99519.67;3437588;80;21570;-76
2022/05/21 04:54:46;;;;;;;19.20;17.37;;;;;;;16.31;75.09;99516.59;3455543;80;20974;-76
2022/05/21 04:59:38;;;;;;;17.82;16.17;;;;;;;16.32;75.43;99527.93;3493550;80;20934;-76
2022/05/21 05:04:29;;;;;;;17.17;15.50;;;;;;;16.36;75.33;99522.58;3469112;80;21382;-76
2022/05/21 05:09:22;;;;;;;17.05;15.65;;;;;;;16.37;75.46;99520.81;3450117;80;20939;-76
2022/05/21 05:14:14;;;;;;;17.75;16.17;;;;;;;16.39;75.52;99517.23;3436205;81;21053;-76
2022/05/21 05:19:05;;;;;;;16.35;14.75;;;;;;;16.53;75.75;99527.38;3493324;80;20935;-76
2022/05/21 05:23:56;;;;;;;15.43;14.13;;;;;;;16.53;75.91;99527.38;3421540;80;21598;-76
2022/05/21 05:28:47;;;;;;;14.58;13.25;;;;;;;16.51;76.10;99523.08;3463015;80;22793;-76
2022/05/21 05:33:38;;;;;;;14.60;13.40;;;;;;;16.51;76.17;99518.69;3500312;80;21108;-76
2022/05/21 05:38:29;;;;;;;13.88;12.75;;;;;;;16.49;76.33;99520.92;3465890;80;21159;-76
2022/05/21 05:43:21;;;;;;;15.13;13.83;;;;;;;16.47;76.55;99531.91;3430356;80;21579;-77
2022/05/21 05:48:12;;;;;;;14.03;12.85;;;;;;;16.45;76.85;99539.81;3457348;80;21418;-77
2022/05/21 05:53:06;;;;;;;11.53;10.63;;;;;;;16.46;76.97;99544.17;3484820;80;21708;-77
2022/05/21 05:57:58;;;;;;;11.50;10.60;;;;;;;16.41;77.19;99538.18;3453866;80;21335;-77
2022/05/21 06:02:58;;;;;;;11.35;10.43;;;;;;;16.38;77.48;99543.07;3436764;80;21082;-77
2022/05/21 06:07:55;;;;;;;11.18;10.28;;;;;;;16.38;77.45;99550.94;3458599;80;21004;-77
2022/05/21 06:12:47;;;;;;;;;;;;;;;16.39;77.92;99532.97;3509542;80;21474;-76
2022/05/21 06:17:39;;;;;;;11.68;10.68;;;;;;;16.55;78.07;99539.14;3441979;80;20130;-77
2022/05/21 06:22:32;;;;;;;11.97;10.98;;;;;;;16.61;78.16;99542.05;3460782;80;21498;-78
2022/05/21 06:27:23;;;;;;;12.98;11.78;;;;;;;16.61;77.97;99548.15;3473893;80;22252;-77
2022/05/21 06:32:15;;;;;;;12.50;11.30;;;;;;;16.59;78.30;99552.58;3448958;80;20988;-77
2022/05/21 06:37:09;;;;;;;11.90;10.75;;;;;;;16.61;79.04;99554.71;3415725;80;20974;-77
2022/05/21 06:42:01;;;;;;;10.18;9.23;;;;;;;16.78;78.65;99540.69;3454997;80;21533;-76
2022/05/21 06:46:53;;;;;;;8.68;7.87;;;;;;;17.08;78.32;99545.16;3401510;82;20937;-77
2022/05/21 06:51:44;;;;;;;7.90;7.28;;;;;;;17.62;77.43;99540.51;3449826;81;21146;-77
2022/05/21 06:56:41;;;;;;;8.50;7.80;;;;;;;17.90;77.18;99539.23;3436587;81;20977;-77
2022/05/21 07:01:32;;;;;;;8.18;7.58;;;;;;;17.96;76.72;99537.31;3352555;81;20962;-77
2022/05/21 07:11:33;;;;;;;4.92;4.62;;;;;;;18.08;75.27;99580.28;3357713;82;21051;-77
2022/05/21 07:16:25;;;;;;;3.67;3.37;;;;;;;18.71;72.63;99582.59;3372338;83;21065;-77
2022/05/21 07:21:18;;;;;;;4.08;2.58;;;;;;;19.97;69.41;99613.61;3376289;84;21513;-77
2022/05/21 07:26:09;;;;;;;4.25;2.02;;;;;;;22.08;64.00;99598.70;3375482;83;21085;-77
2022/05/21 07:31:00;;;;;;;3.22;2.08;;;;;;;23.21;61.08;99607.22;3349491;83;22064;-77
2022/05/21 07:35:52;;;;;;;2.47;2.08;;;;;;;21.25;63.07;99621.05;3296967;83;21014;-77
2022/05/21 07:40:47;;;;;;;3.67;2.40;;;;;;;19.97;64.56;99647.91;3378576;83;22541;-77
2022/05/21 07:45:39;;;;;;;1.12;0.93;;;;;;;19.07;64.12;99642.86;3343776;83;21018;-76
2022/05/21 07:50:30;;;;;;;4.40;1.10;;;;;;;18.35;63.27;99670.65;3337959;83;21014;-77
2022/05/21 07:55:21;;;;;;;2.72;1.40;;;;;;;18.07;64.33;99680.70;3342126;83;21002;-76
2022/05/21 08:00:17;;;;;;;3.90;1.12;;;;;;;17.72;64.03;99696.16;3353769;83;20991;-77
2022/05/21 08:05:07;;;;;;;2.47;1.20;;;;;;;17.50;64.04;99698.08;3434473;80;21231;-76
2022/05/21 08:09:58;;;;;;;1.55;0.75;;;;;;;17.28;63.58;99698.28;3436466;80;20914;-76
2022/05/21 08:14:50;;;;;;;0.80;0.80;;;;;;;17.12;64.71;99714.43;3437693;80;21515;-76
2022/05/21 08:19:41;;;;;;;2.30;0.88;;;;;;;17.22;63.20;99720.29;3441637;80;20894;-76
2022/05/21 08:29:40;;;;;;;2.98;1.12;;;;;;;16.77;63.22;99738.44;3269744;86;21175;-76
2022/05/21 08:34:31;;;;;;;1.50;1.00;;;;;;;16.57;63.35;99732.36;3221708;86;21083;-76
2022/05/21 08:39:23;;;;;;;2.83;1.07;;;;;;;16.50;63.67;99746.98;3208439;86;20991;-76
2022/05/21 08:44:29;;;;;;;2.90;1.12;;;;;;;16.39;63.24;99752.47;3261039;87;21185;-76
2022/05/21 08:50:00;;;;;;;2.90;1.00;;;;;;;16.27;63.49;99764.08;3225582;88;21043;-76
2022/05/21 08:54:54;;;;;;;1.67;1.02;;;;;;;16.25;63.05;99776.83;3216911;87;21205;-76
2022/05/21 08:59:51;;;;;;;2.05;0.90;;;;;;;16.40;62.75;99779.13;3179437;87;21022;-76
2022/05/21 09:04:42;;;;;;;2.17;1.00;;;;;;;16.50;61.37;99766.66;3474283;80;21060;-76
2022/05/21 09:09:51;;;;;;;2.60;1.40;;;;;;;16.39;61.88;99790.05;3404892;80;21510;-76
2022/05/21 09:14:46;;;;;;;0.70;0.70;;;;;;;16.39;61.75;99749.84;3494232;80;20965;-76
2022/05/21 09:19:42;;;;;;;2.62;1.00;;;;;;;17.18;59.94;99765.08;3419425;80;21455;-76
2022/05/21 09:24:44;;;;;;;2.27;0.90;;;;;;;17.46;59.80;99775.75;3450260;80;21486;-77
2022/05/21 09:29:37;;;;;;;2.40;0.85;;;;;;;17.21;58.84;99782.09;3497987;81;22151;-76
2022/05/21 09:34:35;;;;;;;1.42;1.02;;;;;;;16.92;58.81;99799.42;3447637;80;20986;-76
2022/05/21 09:39:34;;;;;;;2.83;0.95;;;;;;;16.92;58.89;99807.30;3427698;80;20962;-76
2022/05/21 09:49:35;;;;;;;1.25;1.10;;;;;;;17.07;58.93;99822.67;3429111;81;21284;-76
2022/05/21 09:54:31;;;;;;;0.90;0.90;;;;;;;17.51;58.14;99804.94;3447967;80;21466;-76
2022/05/21 09:59:27;;;;;;;0.93;0.90;;;;;;;17.51;57.37;99802.31;3394741;81;20987;-76
2022/05/21 10:04:32;;;;;;;3.40;1.10;;;;;;;17.25;57.26;99809.99;3483088;80;20922;-76
2022/05/21 10:15:11;;;;;;;2.00;1.32;;;;;;;16.82;57.99;99828.06;3487519;80;21013;-78
2022/05/21 10:20:30;;;;;;;3.30;1.20;;;;;;;16.76;57.33;99835.17;3488362;80;21069;-78
2022/05/21 10:25:27;;;;;;;6.45;1.35;;;;;;;16.68;57.70;99838.40;3456601;82;20997;-78
2022/05/21 10:30:57;;;;;;;2.90;1.47;;;;;;;16.71;57.80;99850.15;3374045;82;20975;-77
2022/05/21 10:36:25;;;;;;;1.47;1.20;;;;;;;16.64;57.50;99872.18;3427834;82;22612;-78
2022/05/21 10:41:34;;;;;;;3.98;1.45;;;;;;;16.49;57.16;99882.98;3405277;82;21378;-78
2022/05/21 10:46:51;;;;;;;2.20;1.40;;;;;;;16.46;57.52;99868.64;3447373;81;20937;-78
2022/05/21 10:51:48;;;;;;;1.67;1.40;;;;;;;16.60;57.31;99877.09;3446567;81;21055;-78
2022/05/21 10:56:44;;;;;;;1.10;0.90;;;;;;;16.60;56.98;99890.20;3449026;82;21073;-83
2022/05/21 11:02:07;;;;;;;4.57;1.23;;;;;;;16.47;57.25;99893.96;3404720;82;21379;-78
2022/05/21 11:07:42;;;;;;;1.45;1.07;;;;;;;16.45;57.52;99875.62;3258681;85;21044;-77
2022/05/21 11:12:45;;;;;;;2.37;1.10;;;;;;;16.41;57.90;99895.41;3283746;85;21486;-77
2022/05/21 11:17:41;;;;;;;2.85;1.20;;;;;;;16.38;57.43;99906.39;3344178;84;20936;-77
2022/05/21 11:22:40;;;;;;;5.23;2.10;;;;;;;17.21;56.54;99900.28;3374305;83;21054;-77
2022/05/21 11:27:56;;;;;;;1.98;0.98;;;;;;;17.56;56.09;99906.44;3338155;84;21384;-77
2022/05/21 11:38:24;;;;;;;3.37;1.30;;;;;;;19.32;54.10;99908.56;3250144;85;21046;-78
2022/05/21 11:43:18;;;;;;;4.28;1.72;;;;;;;19.83;52.05;99927.16;3331488;82;21054;-78
2022/05/21 11:48:22;;;;;;;1.30;1.20;;;;;;;19.54;51.10;99910.03;3402997;81;20982;-78
2022/05/21 11:53:37;;;;;;;3.67;1.20;;;;;;;19.35;51.14;99938.78;3444017;81;20923;-78
2022/05/21 11:59:03;;;;;;;6.20;1.35;;;;;;;18.75;51.48;99949.77;3313851;84;21043;-76
2022/05/21 12:03:55;;;;;;;3.27;1.35;;;;;;;18.16;51.61;99950.98;3333626;84;20956;-77
2022/05/21 12:08:48;;;;;;;6.78;1.37;;;;;;;17.93;51.55;99973.47;3294579;84;21010;-78
2022/05/21 12:14:08;;;;;;;2.15;1.00;;;;;;;18.27;51.79;99943.19;3347025;84;21059;-77
2022/05/21 12:19:05;;;;;;;2.02;1.00;;;;;;;18.31;51.51;99959.76;3340299;83;21071;-77
2022/05/21 12:24:07;;;;;;;1.20;0.78;;;;;;;17.72;50.46;99965.62;3333849;84;21030;-76
2022/05/21 12:29:15;;;;;;;2.92;0.90;;;;;;;17.24;52.18;99984.25;3385985;83;20984;-77
2022/05/21 12:34:21;;;;;;;23.42;2.60;;;;;;;17.00;52.42;99972.08;3407223;82;21002;-77
2022/05/21 12:39:20;;;;;;;1.12;0.85;;;;;;;17.11;52.00;99981.89;3393820;83;21026;-77
2022/05/21 12:44:38;;;;;;;1.45;0.80;;;;;;;18.05;51.52;99981.52;3417370;82;21559;-78
2022/05/21 12:49:35;;;;;;;1.35;0.90;;;;;;;18.83;50.63;99968.00;3388277;82;21010;-77
2022/05/21 12:54:29;;;;;;;1.30;0.95;;;;;;;18.53;49.83;99990.33;3387807;82;20928;-78
2022/05/21 12:59:29;;;;;;;3.92;1.07;;;;;;;18.38;49.92;100007.83;3378495;82;20936;-78
2022/05/21 13:04:27;;;;;;;4.65;1.00;;;;;;;18.28;50.76;99988.81;3411939;80;20924;-77
2022/05/21 13:09:19;;;;;;;2.60;1.20;;;;;;;18.21;49.91;99988.09;3444546;80;22260;-77
2022/05/21 13:14:15;;;;;;;1.15;1.00;;;;;;;18.02;50.42;100003.94;3468061;80;20938;-77
2022/05/21 13:19:28;;;;;;;1.70;0.93;;;;;;;17.57;50.62;99995.77;3487404;80;20924;-77
2022/05/21 13:24:37;;;;;;;2.67;1.30;;;;;;;17.08;51.17;99995.11;3491997;80;21004;-77
2022/05/21 13:29:30;;;;;;;0.72;0.72;;;;;;;16.85;50.99;100034.11;3466777;80;20971;-77
2022/05/21 13:34:29;;;;;;;3.15;1.10;;;;;;;17.00;51.28;100035.56;3457276;80;21073;-78
2022/05/21 13:39:25;;;;;;;3.22;1.30;;;;;;;17.30;50.88;100013.03;3510961;80;20974;-77
2022/05/21 13:44:24;;;;;;;2.27;1.02;;;;;;;17.39;50.90;100013.28;3478263;80;20997;-77
2022/05/21 13:49:30;;;;;;;1.98;1.20;;;;;;;17.01;50.98;100015.84;3504603;81;20973;-77
2022/05/21 13:54:26;;;;;;;4.55;1.50;;;;;;;16.73;51.27;100012.41;3483782;81;21500;-77
2022/05/21 13:59:21;;;;;;;1.80;1.32;;;;;;;16.93;51.41;100034.81;3476629;81;27676;-77
2022/05/21 14:04:29;;;;;;;2.72;1.50;;;;;;;18.27;50.74;100027.39;3433305;81;20981;-78
2022/05/21 14:09:24;;;;;;;3.58;1.00;;;;;;;19.16;48.94;100015.36;3417904;81;21085;-77
2022/05/21 14:14:15;;;;;;;3.80;0.95;;;;;;;19.46;47.87;100014.00;3379891;81;21025;-78
2022/05/21 14:19:18;;;;;;;8.90;0.90;;;;;;;19.10;46.71;100030.90;3344712;83;21020;-77
2022/05/21 14:24:17;;;;;;;3.12;0.90;;;;;;;18.67;46.78;100045.21;3464809;80;21479;-77
2022/05/21 14:29:37;;;;;;;2.12;0.78;;;;;;;18.52;47.52;100050.45;3395301;83;21018;-77
2022/05/21 14:34:31;;;;;;;4.37;1.32;;;;;;;18.74;46.88;100048.55;3452808;81;21049;-77
2022/05/21 14:39:22;;;;;;;1.77;1.47;;;;;;;18.39;46.50;100047.27;3425845;81;21024;-77
2022/05/21 14:44:24;;;;;;;2.65;1.80;;;;;;;18.18;46.97;100053.94;3433698;81;21690;-78
2022/05/21 14:49:17;;;;;;;1.62;0.98;;;;;;;17.85;46.37;100079.24;3433508;81;20998;-77
2022/05/21 14:54:08;;;;;;;3.10;1.10;;;;;;;17.47;47.15;100048.13;3308270;83;21334;-78
2022/05/21 14:59:01;;;;;;;3.10;1.25;;;;;;;17.35;48.14;100079.48;3343617;83;20952;-78
2022/05/21 15:03:53;;;;;;;3.25;1.45;;;;;;;17.22;48.70;100064.86;3385504;82;20982;-77
2022/05/21 15:08:44;;;;;;;3.87;1.47;;;;;;;17.18;49.30;100068.45;3404248;82;21014;-78
2022/05/21 15:13:35;;;;;;;4.00;1.20;;;;;;;17.26;49.35;100082.28;3417011;81;21053;-77
2022/05/21 15:18:27;;;;;;;1.92;1.20;;;;;;;17.75;49.11;100063.28;3414198;81;21069;-77
2022/05/21 15:23:18;;;;;;;4.42;1.35;;;;;;;17.51;49.48;100051.13;3420147;82;21520;-77
2022/05/21 15:28:10;;;;;;;6.10;1.77;;;;;;;17.47;49.77;100064.78;3362234;82;48114;-77
2022/05/21 15:33:02;;;;;;;2.77;1.20;;;;;;;17.44;49.80;100053.47;3415897;81;21483;-77
2022/05/21 15:37:53;;;;;;;2.47;1.32;;;;;;;17.66;49.95;100053.84;3389052;82;21378;-76
2022/05/21 15:42:47;;;;;;;4.72;1.35;;;;;;;18.04;49.57;100053.42;3385705;82;21299;-77
2022/05/21 15:47:41;;;;;;;3.02;1.37;;;;;;;17.87;49.57;100045.48;3448739;82;20978;-77
2022/05/21 15:52:34;;;;;;;2.95;1.27;;;;;;;18.13;48.96;100043.98;3387304;82;20959;-77
2022/05/21 15:57:26;;;;;;;2.87;1.60;;;;;;;18.13;48.70;100050.55;3403087;82;20976;-77
2022/05/21 16:02:25;;;;;;;2.62;1.42;;;;;;;17.78;49.56;100042.16;3405416;82;20991;-76
2022/05/21 16:07:17;;;;;;;8.83;2.62;;;;;;;17.45;49.73;100031.07;3399002;83;21022;-76
2022/05/21 16:12:10;;;;;;;3.90;1.37;;;;;;;17.32;50.41;100041.45;3305664;83;20972;-77
2022/05/21 16:17:02;;;;;;;2.72;1.30;;;;;;;17.23;50.63;100035.08;3332930;83;21489;-77
2022/05/21 16:21:58;;;;;;;2.10;1.55;;;;;;;17.14;50.69;100038.31;3260816;83;20991;-77
2022/05/21 16:32:01;;;;;;;3.25;1.30;;;;;;;17.74;50.06;100037.42;3397236;82;21026;-77
2022/05/21 16:36:52;;;;;;;2.22;1.45;;;;;;;17.77;49.93;100032.10;3375131;83;21001;-76
2022/05/21 16:41:43;;;;;;;2.35;1.20;;;;;;;17.34;49.87;100037.02;3365641;83;21062;-77
2022/05/21 16:46:34;;;;;;;2.10;1.12;;;;;;;16.96;50.85;100028.19;3402002;82;20978;-77
2022/05/21 16:51:25;;;;;;;2.30;1.20;;;;;;;17.11;50.87;100021.29;3405043;82;20927;-77
2022/05/21 16:56:17;;;;;;;1.70;1.12;;;;;;;17.21;50.76;100025.06;3394730;82;21056;-76
2022/05/21 17:01:08;;;;;;;1.32;1.05;;;;;;;16.91;51.24;100026.95;3331828;82;20999;-77
2022/05/21 17:05:59;;;;;;;2.25;1.65;;;;;;;16.63;51.70;100021.80;3372995;81;20985;-76
2022/05/21 17:10:50;;;;;;;2.85;2.02;;;;;;;16.35;52.30;100021.87;3370946;82;21240;-77
2022/05/21 17:15:43;;;;;;;1.50;1.40;;;;;;;16.20;52.81;100007.70;3347312;82;21454;-76
2022/05/21 17:20:35;;;;;;;2.17;1.95;;;;;;;16.27;53.00;100007.16;3388298;82;20991;-77
2022/05/21 17:25:29;;;;;;;4.17;3.10;;;;;;;16.41;53.14;100005.59;3322831;82;21009;-76
2022/05/21 17:30:30;;;;;;;5.00;2.02;;;;;;;16.39;53.38;99990.73;3364014;83;21478;-77
2022/05/21 17:35:26;;;;;;;3.08;1.87;;;;;;;16.14;53.73;99984.22;3338834;82;21013;-77
2022/05/21 17:40:18;;;;;;;1.87;1.57;;;;;;;15.93;54.45;99988.92;3321137;83;21267;-76
2022/05/21 17:45:11;;;;;;;4.10;1.87;;;;;;;15.62;55.45;99998.55;3333226;82;20978;-78
2022/05/21 17:50:11;;;;;;;4.47;2.77;;;;;;;15.38;55.81;100012.89;3343506;82;20971;-75
2022/05/21 17:55:03;;;;;;;6.45;2.25;;;;;;;15.14;56.57;100006.22;3290275;85;21002;-75
2022/05/21 17:59:54;;;;;;;2.98;1.80;;;;;;;15.02;57.53;100012.50;3331569;82;20931;-75
2022/05/21 18:04:49;;;;;;;5.37;2.15;;;;;;;14.94;57.17;100010.86;3371432;81;20995;-75
2022/05/21 18:09:40;;;;;;;2.12;1.65;;;;;;;14.85;57.76;100002.67;3437102;81;20926;-74
2022/05/21 18:14:31;;;;;;;3.70;1.70;;;;;;;14.79;58.21;100004.92;3434169;80;21017;-75
2022/05/21 18:19:25;;;;;;;2.30;1.70;;;;;;;14.73;58.80;99999.73;3458336;80;21516;-75
2022/05/21 18:24:22;;;;;;;3.58;2.45;;;;;;;14.69;59.55;99995.44;3407819;81;20919;-75
2022/05/21 18:29:14;;;;;;;2.33;1.60;;;;;;;14.67;59.54;100016.37;3458467;80;21840;-76
2022/05/21 18:34:08;;;;;;;2.47;2.27;;;;;;;14.66;59.90;99997.62;3470792;80;20979;-76
2022/05/21 18:39:00;;;;;;;2.85;2.02;;;;;;;14.64;60.23;99998.54;3414870;81;20928;-76
2022/05/21 18:43:54;;;;;;;3.47;2.02;;;;;;;14.58;60.41;99996.86;3430105;80;20919;-76
2022/05/21 18:48:45;;;;;;;1.95;1.80;;;;;;;14.52;60.91;100007.80;3406666;80;20970;-76
2022/05/21 18:53:39;;;;;;;3.52;2.17;;;;;;;14.48;61.33;100016.97;3443458;80;21685;-76
2022/05/21 18:58:30;;;;;;;3.00;2.10;;;;;;;14.43;61.29;100020.52;3481931;80;21855;-76
2022/05/21 19:03:25;;;;;;;1.77;1.65;;;;;;;14.39;61.52;100015.76;3463562;80;20954;-76
2022/05/21 19:08:18;;;;;;;3.47;2.52;;;;;;;14.41;61.58;100020.98;3431275;81;20896;-75
2022/05/21 19:13:13;;;;;;;3.15;2.27;;;;;;;14.42;61.91;100020.97;3426057;80;22729;-76
2022/05/21 19:19:11;;;;;;;3.22;1.80;;;;;;;14.43;61.88;100020.10;3441255;82;20988;-76
2022/05/21 19:22:59;;;;;;;3.22;1.62;;;;;;;14.45;61.78;100021.37;3429848;82;21013;-76
2022/05/21 19:27:51;;;;;;;3.15;2.02;;;;;;;14.45;61.84;100028.80;3413645;81;20931;-76
2022/05/21 19:32:45;;;;;;;3.10;2.80;;;;;;;14.44;61.89;100019.20;3409398;82;22063;-76
2022/05/21 19:37:36;;;;;;;5.78;2.17;;;;;;;14.41;62.07;100019.22;3442227;82;21026;-76
2022/05/21 19:42:27;;;;;;;2.33;1.90;;;;;;;14.35;62.20;100015.38;3386405;81;21481;-76
2022/05/21 19:47:19;;;;;;;4.10;2.42;;;;;;;14.33;62.23;100013.22;3409634;82;21200;-76
2022/05/21 19:52:11;;;;;;;3.47;2.27;;;;;;;14.36;62.43;100007.97;3415714;82;20884;-76
2022/05/21 19:57:04;;;;;;;3.22;2.80;;;;;;;14.34;62.45;100010.16;3422101;82;20995;-76
2022/05/21 20:01:57;;;;;;;4.15;2.70;;;;;;;14.32;62.54;100006.69;3426439;82;20922;-76
2022/05/21 20:06:49;;;;;;;4.40;2.62;;;;;;;14.29;62.57;99999.31;3409581;81;21205;-76
2022/05/21 20:11:41;;;;;;;3.10;2.80;;;;;;;14.29;62.67;99998.45;3412534;81;20974;-76
2022/05/21 20:16:37;;;;;;;3.30;3.00;;;;;;;14.29;62.88;99997.14;3406207;81;21092;-76
2022/05/21 20:21:28;;;;;;;3.83;2.40;;;;;;;14.28;62.91;99988.86;3394329;81;21516;-76
2022/05/21 20:26:20;;;;;;;6.15;3.17;;;;;;;14.23;63.24;99996.73;3407017;82;20954;-77
2022/05/21 20:31:15;;;;;;;4.08;3.37;;;;;;;14.17;64.18;100010.33;3398154;82;20986;-77
2022/05/21 20:36:07;;;;;;;7.35;4.87;;;;;;;14.02;65.54;100005.66;3408993;81;21389;-76
2022/05/21 20:41:00;;;;;;;6.20;4.55;;;;;;;13.83;66.47;100006.23;3438636;82;21055;-78
2022/05/21 20:45:51;;;;;;;2.60;2.17;;;;;;;13.68;67.52;100033.35;3407726;82;21130;-78
2022/05/21 20:50:42;;;;;;;2.60;1.37;;;;;;;13.38;67.60;100021.77;3390481;81;20987;-77
2022/05/21 20:55:34;;;;;;;3.37;1.30;;;;;;;13.10;67.46;99990.56;3389500;82;21076;-77
2022/05/21 21:00:26;;;;;;;1.37;1.27;;;;;;;12.81;67.77;99989.40;3380924;82;20998;-77
2022/05/21 21:05:18;;;;;;;1.20;1.10;;;;;;;12.69;67.83;99982.03;3408692;81;20894;-76
2022/05/21 21:10:14;;;;;;;1.65;1.55;;;;;;;12.60;68.14;99985.97;3402515;82;20927;-76
2022/05/21 21:15:07;;;;;;;2.20;1.72;;;;;;;12.45;68.50;99982.98;3370396;82;21008;-77
2022/05/21 21:19:58;;;;;;;6.00;2.80;;;;;;;12.36;69.03;99988.22;3408382;82;21196;-76
2022/05/21 21:24:49;;;;;;;2.80;2.42;;;;;;;12.30;69.81;99988.22;3349920;82;20987;-76
2022/05/21 21:29:40;;;;;;;4.13;2.43;;;;;;;12.31;70.15;99991.27;3394156;81;20958;-76
2022/05/21 21:34:31;;;;;;;2.87;2.67;;;;;;;12.30;70.63;99976.04;3356768;82;21922;-76
2022/05/21 21:39:22;;;;;;;3.02;2.75;;;;;;;12.26;70.89;99976.06;3333018;82;21066;-77
2022/05/21 21:44:16;;;;;;;2.85;2.62;;;;;;;12.18;71.06;99966.52;3393894;82;21376;-77
2022/05/21 21:49:08;;;;;;;3.80;2.90;;;;;;;12.17;71.28;99972.59;3408690;81;21469;-77
2022/05/21 21:53:59;;;;;;;3.10;2.90;;;;;;;12.09;71.28;99976.97;3412544;82;21010;-77
2022/05/21 22:04:01;;;;;;;2.67;2.47;;;;;;;12.01;71.65;99971.73;3406519;81;21526;-77
2022/05/21 22:08:52;;;;;;;2.77;2.58;;;;;;;11.97;72.13;99974.37;3407024;82;21286;-77
2022/05/21 22:13:43;;;;;;;3.30;3.00;;;;;;;11.91;72.03;99974.35;3382224;82;21002;-77
2022/05/21 22:18:35;;;;;;;3.47;2.75;;;;;;;11.89;72.15;99967.80;3354219;82;21539;-77
2022/05/21 22:23:31;;;;;;;3.30;3.02;;;;;;;11.86;72.58;99970.84;3388387;82;20987;-77
2022/05/21 22:28:22;;;;;;;4.00;2.87;;;;;;;11.80;72.34;99972.61;3349589;82;20953;-77
2022/05/21 22:33:14;;;;;;;2.67;2.47;;;;;;;11.78;72.64;99962.59;3404682;82;21137;-77
2022/05/21 22:38:05;;;;;;;2.65;2.45;;;;;;;11.76;72.87;99966.94;3429105;82;21471;-77
2022/05/21 22:42:56;;;;;;;4.30;2.67;;;;;;;11.71;73.11;99964.77;3421120;82;20998;-77
2022/05/21 22:47:48;;;;;;;5.53;3.17;;;;;;;11.71;73.29;99963.91;3398933;83;21451;-77
2022/05/21 22:52:43;;;;;;;3.37;3.08;;;;;;;11.69;73.32;99958.70;3405384;82;21307;-77
2022/05/21 22:57:34;;;;;;;3.22;2.92;;;;;;;11.67;73.39;99960.44;3402963;82;21073;-77
2022/05/21 23:02:26;;;;;;;5.25;3.55;;;;;;;11.63;73.98;99956.11;3393105;82;21398;-77
2022/05/21 23:07:17;;;;;;;3.75;3.45;;;;;;;11.58;73.74;99952.63;3379291;81;21003;-76
2022/05/21 23:12:09;;;;;;;3.40;3.02;;;;;;;11.59;73.83;99951.33;3384908;82;21707;-76
2022/05/21 23:22:24;;;;;;;4.30;3.62;;;;;;;11.69;74.31;99946.98;3433723;83;21211;-77
2022/05/21 23:27:16;;;;;;;3.90;3.60;;;;;;;11.77;74.62;99942.65;3422828;82;20950;-77
2022/05/21 23:32:08;;;;;;;4.97;4.47;;;;;;;11.81;74.56;99936.56;3434581;82;20981;-76
2022/05/21 23:37:07;;;;;;;4.75;4.35;;;;;;;11.84;74.37;99940.92;3406541;81;20981;-77
2022/05/21 23:41:58;;;;;;;4.80;4.30;;;;;;;11.83;74.74;99934.81;3418201;82;20959;-77